Vremea mâine în Onești - Romania

Vrei sa afli care e starea vremii acum in Vaslui - Romania? Dorim sa iti furnizam starea vremii pentru Vaslui - Romania. Starea vremii Vaslui - Romania pentru astazi.

Vremea mâine în Onești

Temperatura minimă:
9.1 °C

Temperatura maximă:
23.1 °C

Mâine va fi: Senin
Precipitații: 0 %
Umiditate: 64%
Viteza maximă vânt mâine:
21.6 km/h

Evoluția vremii in Onești pe ore mâine

Ora: 03:00
Temperatura: °C
Sansa de precipitatii: %
Ora Descriere Temp Se simte Precipitatii Umiditate Vant
00:00Senin11°10.3°0%76%WSW 7.6 KM/H
01:00Senin10.7°9.8°0%76%WSW 7.9 KM/H
02:00Senin10.4°9.5°0%75%WSW 7.9 KM/H
03:00Senin10.1°9.3°0%75%WSW 7.2 KM/H
04:00Senin9.8°9.2°0%76%WSW 6.5 KM/H
05:00Senin9.5°8.9°0%77%SW 5.8 KM/H
06:00Senin9.1°8.6°0%78%SW 5.4 KM/H
07:00Senin10.5°10.3°0%77%SW 5 KM/H
08:00Senin14.8°15.5°0%68%S 3.6 KM/H
09:00Senin17.1°17.1°0%61%SE 5 KM/H
10:00Senin19°19°0%57%ESE 9 KM/H
11:00Senin20.9°20.9°0%49%SE 11.5 KM/H
12:00Senin22°24.2°0%43%SE 15.1 KM/H
13:00Senin22.7°24.3°0%41%SE 16.2 KM/H
14:00Senin23.1°24.4°0%39%SE 18 KM/H
15:00Senin23.1°24.4°0%40%SE 21.6 KM/H
16:00Senin22.8°24.4°0%42%SE 21.6 KM/H
17:00Senin22.4°24.4°0%47%SE 19.4 KM/H
18:00Thundery outbreaks in nearby21.5°21.5°0%54%SE 18 KM/H
19:00Senin19.5°19.5°0%62%SSE 15.5 KM/H
20:00Patchy rain nearby15.5°15.5°100%72%SSE 8.6 KM/H
21:00Thundery outbreaks in nearby13°12.6°0%82%SSE 7.9 KM/H
22:00Thundery outbreaks in nearby12.6°12.5°0%83%SSE 5.8 KM/H
23:00Thundery outbreaks in nearby13.1°12.4°0%83%SSE 9.7 KM/H




tutorials